KLYH Airport Information

Runway Information
Runway 04 Length 5799 ft width 150 ft
Elevation 899 ft Threshold 0 ft Heading 28
Runway 22 Length 5799 ft Width 150 ft
Elevation 938 ft Threshold 0 ft Heading 208
Runway 17 Length 3387 ft width 75 ft
Elevation 918 ft Threshold 0 ft Heading 161
Runway 35 Length 3387 ft Width 75 ft
Elevation 918 ft Threshold 0 ft Heading 341
Airport Frequencies
Type A/D Name ROANOKE AP Frequency 125.47 MHZ
Type ATIS Name ATIS Frequency 119.8 MHZ
Type CTAF Name CTAF Frequency 127.65 MHZ
Type GND Name GND Frequency 121.9 MHZ
Type RDO Name LEESBURG R Frequency 109.2 MHZ
Type TWR Name TWR Frequency 127.65 MHZ
Type UNIC Name UNICOM Frequency 122.95 MHZ
Airport Navaids
Type NDB Name Bojar Frequency 385 KHZ
Type VORTAC Name Lynchburg Frequency 109200 KHZ
Airport Weather Information & NOTAM
ADDS - METARS form results

(0917 UTC 14 June 2021)
Data provider http://aviationweather.gov/metar/data/
 
METAR text: KLYH 140907Z AUTO 00000KT 2SM BR CLR 18/17 A2989 RMK AO2 VIS 1V5 T01780172
Conditions at: KLYH (LYNCHBURG , VA, US) observed 0907 UTC 14 June 2021
Temperature: 17.8°C (64°F)
Dewpoint: 17.2°C (63°F) [RH = 96%]
Pressure (altimeter): 29.89 inches Hg (1012.3 mb)
Winds: calm
Visibility: 2.00 miles (3.22 km)
Ceiling: at least 12,000 feet AGL
Clouds: sky clear below 12,000 feet AGL
Weather: BR  (mist)

METAR text: KLYH 140854Z AUTO 00000KT 5SM BR CLR 18/17 A2988 RMK AO2 SLP110 T01780167 53005
Conditions at: KLYH (LYNCHBURG , VA, US) observed 0854 UTC 14 June 2021
Temperature: 17.8°C (64°F)
Dewpoint: 16.7°C (62°F) [RH = 93%]
Pressure (altimeter): 29.88 inches Hg (1011.9 mb)
[Sea-level pressure: 1011.0 mb]
Winds: calm
Visibility: 5 miles ( 8 km)
Ceiling: at least 12,000 feet AGL
Clouds: sky clear below 12,000 feet AGL
Weather: BR  (mist)

METAR text: KLYH 140848Z AUTO 00000KT 3SM BR CLR 18/17 A2988 RMK AO2
Conditions at: KLYH (LYNCHBURG , VA, US) observed 0848 UTC 14 June 2021
Temperature: 18.0°C (64°F)
Dewpoint: 17.0°C (63°F) [RH = 94%]
Pressure (altimeter): 29.88 inches Hg (1011.9 mb)
Winds: calm
Visibility: 3 miles ( 5 km)
Ceiling: at least 12,000 feet AGL
Clouds: sky clear below 12,000 feet AGL
Weather: BR  (mist)

METAR text: KLYH 140838Z AUTO 00000KT 1 1/2SM BR CLR 18/17 A2988 RMK AO2 T01780167
Conditions at: KLYH (LYNCHBURG , VA, US) observed 0838 UTC 14 June 2021
Temperature: 17.8°C (64°F)
Dewpoint: 16.7°C (62°F) [RH = 93%]
Pressure (altimeter): 29.88 inches Hg (1011.9 mb)
Winds: calm
Visibility: 1.50 miles (2.41 km)
Ceiling: at least 12,000 feet AGL
Clouds: sky clear below 12,000 feet AGL
Weather: BR  (mist)

Forecast for: KLYH (LYNCHBURG , VA, US)
Text: KLYH 140853Z 1409/1506 VRB03KT 3SM BR SCT015 BKN150
Forecast period: 0900 to 1200 UTC 14 June 2021
Forecast type: FROM: standard forecast or significant change
Winds: variable direction winds at 3 MPH (3 knots; 1.5 m/s)
Visibility: 3 miles (5 km)
Ceiling: 15000 feet AGL
Clouds: scattered clouds at 1500 feet AGL
broken clouds at 15000 feet AGL
Weather: BR  (mist)
Text: TEMPO 1410/1412 3/4SM BR BKN003
Forecast period: 1000 to 1200 UTC 14 June 2021
Forecast type: TEMPORARY: The following changes expected for less than half the time period
Visibility: 0.75 miles (1.21 km)
Ceiling: 300 feet AGL
Clouds: broken clouds at 300 feet AGL
Weather: BR  (mist)
Text: FM141200 21004KT P6SM SCT250
Forecast period: 1200 to 1500 UTC 14 June 2021
Forecast type: FROM: standard forecast or significant change
Winds: from the SSW (210 degrees) at 5 MPH (4 knots; 2.1 m/s)
Visibility: 6 or more miles (10+ km)
Ceiling: at least 12,000 feet AGL
Clouds: scattered clouds at 25000 feet AGL
Weather: no significant weather forecast for this period
Text: FM141500 28006KT P6SM SCT250
Forecast period: 1500 to 2200 UTC 14 June 2021
Forecast type: FROM: standard forecast or significant change
Winds: from the W (280 degrees) at 7 MPH (6 knots; 3.1 m/s)
Visibility: 6 or more miles (10+ km)
Ceiling: at least 12,000 feet AGL
Clouds: scattered clouds at 25000 feet AGL
Weather: no significant weather forecast for this period
Text: FM142200 25006KT P6SM SCT250
Forecast period: 2200 UTC 14 June 2021 to 0000 UTC 15 June 2021
Forecast type: FROM: standard forecast or significant change
Winds: from the WSW (250 degrees) at 7 MPH (6 knots; 3.1 m/s)
Visibility: 6 or more miles (10+ km)
Ceiling: at least 12,000 feet AGL
Clouds: scattered clouds at 25000 feet AGL
Weather: no significant weather forecast for this period
Text: FM150000 VRB03KT P6SM SKC
Forecast period: 0000 to 0600 UTC 15 June 2021
Forecast type: FROM: standard forecast or significant change
Winds: variable direction winds at 3 MPH (3 knots; 1.5 m/s)
Visibility: 6 or more miles (10+ km)
Clouds: clear skies
Weather: no significant weather forecast for this period